sensor_id;sensor_type;location;lat;lon;timestamp;P1;durP1;ratioP1;P2;durP2;ratioP2
51618;SDS011;38518;53.164;5.430;2022-11-11T00:00:28;16.90;;;5.70;;
51618;SDS011;38518;53.164;5.430;2022-11-11T00:02:55;15.50;;;5.40;;
51618;SDS011;38518;53.164;5.430;2022-11-11T00:05:21;14.15;;;5.97;;
51618;SDS011;38518;53.164;5.430;2022-11-11T00:07:47;8.95;;;3.92;;
51618;SDS011;38518;53.164;5.430;2022-11-11T00:10:13;15.68;;;4.68;;
51618;SDS011;38518;53.164;5.430;2022-11-11T00:12:39;14.73;;;5.45;;
51618;SDS011;38518;53.164;5.430;2022-11-11T00:15:05;20.35;;;6.13;;
51618;SDS011;38518;53.164;5.430;2022-11-11T00:17:32;24.75;;;6.72;;
51618;SDS011;38518;53.164;5.430;2022-11-11T00:23:01;16.58;;;5.80;;
51618;SDS011;38518;53.164;5.430;2022-11-11T00:25:49;17.75;;;5.40;;
51618;SDS011;38518;53.164;5.430;2022-11-11T00:28:18;17.05;;;5.57;;
51618;SDS011;38518;53.164;5.430;2022-11-11T00:30:44;18.20;;;5.65;;
51618;SDS011;38518;53.164;5.430;2022-11-11T00:33:10;17.15;;;5.97;;
51618;SDS011;38518;53.164;5.430;2022-11-11T00:35:35;15.45;;;5.20;;
51618;SDS011;38518;53.164;5.430;2022-11-11T00:38:20;19.23;;;6.18;;
51618;SDS011;38518;53.164;5.430;2022-11-11T00:41:04;21.40;;;5.97;;
51618;SDS011;38518;53.164;5.430;2022-11-11T00:43:30;16.70;;;5.40;;
51618;SDS011;38518;53.164;5.430;2022-11-11T00:45:56;20.75;;;6.78;;
51618;SDS011;38518;53.164;5.430;2022-11-11T00:51:26;17.00;;;5.75;;
51618;SDS011;38518;53.164;5.430;2022-11-11T00:53:52;17.48;;;6.22;;
51618;SDS011;38518;53.164;5.430;2022-11-11T00:56:18;15.70;;;6.32;;
51618;SDS011;38518;53.164;5.430;2022-11-11T00:58:45;22.73;;;6.63;;
51618;SDS011;38518;53.164;5.430;2022-11-11T01:01:11;17.27;;;6.82;;
51618;SDS011;38518;53.164;5.430;2022-11-11T01:03:36;14.88;;;6.00;;
51618;SDS011;38518;53.164;5.430;2022-11-11T01:06:02;20.00;;;6.22;;
51618;SDS011;38518;53.164;5.430;2022-11-11T01:08:29;19.67;;;6.30;;
51618;SDS011;38518;53.164;5.430;2022-11-11T01:10:56;14.73;;;5.70;;
51618;SDS011;38518;53.164;5.430;2022-11-11T01:13:23;16.83;;;5.70;;
51618;SDS011;38518;53.164;5.430;2022-11-11T01:16:04;17.38;;;5.25;;
51618;SDS011;38518;53.164;5.430;2022-11-11T01:18:32;19.70;;;6.45;;
51618;SDS011;38518;53.164;5.430;2022-11-11T01:21:14;19.23;;;5.65;;
51618;SDS011;38518;53.164;5.430;2022-11-11T01:23:45;23.73;;;7.55;;
51618;SDS011;38518;53.164;5.430;2022-11-11T01:28:48;17.52;;;6.55;;
51618;SDS011;38518;53.164;5.430;2022-11-11T01:31:18;17.38;;;5.95;;
51618;SDS011;38518;53.164;5.430;2022-11-11T01:33:45;13.35;;;5.85;;
51618;SDS011;38518;53.164;5.430;2022-11-11T01:36:12;17.88;;;6.80;;
51618;SDS011;38518;53.164;5.430;2022-11-11T01:38:42;16.77;;;6.30;;
51618;SDS011;38518;53.164;5.430;2022-11-11T01:41:13;17.50;;;6.00;;
51618;SDS011;38518;53.164;5.430;2022-11-11T01:43:59;20.60;;;7.07;;
51618;SDS011;38518;53.164;5.430;2022-11-11T01:46:53;16.70;;;6.22;;
51618;SDS011;38518;53.164;5.430;2022-11-11T01:54:37;16.92;;;6.03;;
51618;SDS011;38518;53.164;5.430;2022-11-11T01:57:24;15.55;;;5.72;;
51618;SDS011;38518;53.164;5.430;2022-11-11T01:59:52;16.90;;;6.25;;
51618;SDS011;38518;53.164;5.430;2022-11-11T02:02:46;15.52;;;6.65;;
51618;SDS011;38518;53.164;5.430;2022-11-11T02:05:17;16.30;;;5.68;;
51618;SDS011;38518;53.164;5.430;2022-11-11T02:08:04;14.60;;;6.00;;
51618;SDS011;38518;53.164;5.430;2022-11-11T02:10:33;18.35;;;6.25;;
51618;SDS011;38518;53.164;5.430;2022-11-11T02:12:59;15.93;;;5.97;;
51618;SDS011;38518;53.164;5.430;2022-11-11T02:15:44;16.88;;;6.10;;
51618;SDS011;38518;53.164;5.430;2022-11-11T02:18:10;20.23;;;6.55;;
51618;SDS011;38518;53.164;5.430;2022-11-11T02:20:40;15.50;;;5.65;;
51618;SDS011;38518;53.164;5.430;2022-11-11T02:23:10;20.90;;;7.05;;
51618;SDS011;38518;53.164;5.430;2022-11-11T02:25:46;22.60;;;6.45;;
51618;SDS011;38518;53.164;5.430;2022-11-11T02:28:14;20.20;;;7.13;;
51618;SDS011;38518;53.164;5.430;2022-11-11T02:30:42;13.18;;;6.22;;
51618;SDS011;38518;53.164;5.430;2022-11-11T02:33:07;25.83;;;7.78;;
51618;SDS011;38518;53.164;5.430;2022-11-11T02:35:34;21.75;;;7.35;;
51618;SDS011;38518;53.164;5.430;2022-11-11T02:38:07;16.77;;;6.72;;
51618;SDS011;38518;53.164;5.430;2022-11-11T02:40:38;22.67;;;7.60;;
51618;SDS011;38518;53.164;5.430;2022-11-11T02:43:29;20.77;;;6.88;;
51618;SDS011;38518;53.164;5.430;2022-11-11T02:45:56;16.30;;;7.65;;
51618;SDS011;38518;53.164;5.430;2022-11-11T02:48:23;17.90;;;8.05;;
51618;SDS011;38518;53.164;5.430;2022-11-11T02:50:49;23.70;;;8.07;;
51618;SDS011;38518;53.164;5.430;2022-11-11T02:53:15;17.45;;;7.80;;
51618;SDS011;38518;53.164;5.430;2022-11-11T02:55:41;18.27;;;8.45;;
51618;SDS011;38518;53.164;5.430;2022-11-11T02:58:07;19.45;;;7.68;;
51618;SDS011;38518;53.164;5.430;2022-11-11T03:00:33;20.38;;;8.02;;
51618;SDS011;38518;53.164;5.430;2022-11-11T03:02:59;18.02;;;8.10;;
51618;SDS011;38518;53.164;5.430;2022-11-11T03:05:25;16.50;;;7.38;;
51618;SDS011;38518;53.164;5.430;2022-11-11T03:07:50;18.35;;;7.28;;
51618;SDS011;38518;53.164;5.430;2022-11-11T03:10:16;15.98;;;7.20;;
51618;SDS011;38518;53.164;5.430;2022-11-11T03:12:42;21.48;;;7.00;;
51618;SDS011;38518;53.164;5.430;2022-11-11T03:15:08;17.10;;;7.10;;
51618;SDS011;38518;53.164;5.430;2022-11-11T03:17:34;14.63;;;7.15;;
51618;SDS011;38518;53.164;5.430;2022-11-11T03:20:15;19.02;;;7.45;;
51618;SDS011;38518;53.164;5.430;2022-11-11T03:23:04;17.58;;;7.90;;
51618;SDS011;38518;53.164;5.430;2022-11-11T03:25:30;17.08;;;8.52;;
51618;SDS011;38518;53.164;5.430;2022-11-11T03:28:24;18.88;;;8.88;;
51618;SDS011;38518;53.164;5.430;2022-11-11T03:30:49;20.52;;;8.95;;
51618;SDS011;38518;53.164;5.430;2022-11-11T03:33:16;16.58;;;7.53;;
51618;SDS011;38518;53.164;5.430;2022-11-11T03:35:43;14.85;;;7.15;;
51618;SDS011;38518;53.164;5.430;2022-11-11T03:38:11;20.70;;;8.35;;
51618;SDS011;38518;53.164;5.430;2022-11-11T03:40:44;19.90;;;8.95;;
51618;SDS011;38518;53.164;5.430;2022-11-11T03:43:14;17.30;;;8.07;;
51618;SDS011;38518;53.164;5.430;2022-11-11T03:45:42;20.65;;;8.65;;
51618;SDS011;38518;53.164;5.430;2022-11-11T03:48:08;17.77;;;8.90;;
51618;SDS011;38518;53.164;5.430;2022-11-11T03:50:34;18.65;;;8.85;;
51618;SDS011;38518;53.164;5.430;2022-11-11T03:53:00;19.85;;;9.02;;
51618;SDS011;38518;53.164;5.430;2022-11-11T03:55:26;22.58;;;10.23;;
51618;SDS011;38518;53.164;5.430;2022-11-11T03:57:52;21.50;;;9.60;;
51618;SDS011;38518;53.164;5.430;2022-11-11T04:00:19;19.70;;;9.63;;
51618;SDS011;38518;53.164;5.430;2022-11-11T04:02:46;20.13;;;9.40;;
51618;SDS011;38518;53.164;5.430;2022-11-11T04:05:31;20.67;;;9.40;;
51618;SDS011;38518;53.164;5.430;2022-11-11T04:08:16;20.63;;;10.45;;
51618;SDS011;38518;53.164;5.430;2022-11-11T04:11:44;22.10;;;11.10;;
51618;SDS011;38518;53.164;5.430;2022-11-11T04:13:56;21.33;;;8.98;;
51618;SDS011;38518;53.164;5.430;2022-11-11T04:16:44;24.30;;;11.85;;
51618;SDS011;38518;53.164;5.430;2022-11-11T04:19:09;19.83;;;11.13;;
51618;SDS011;38518;53.164;5.430;2022-11-11T04:21:53;24.27;;;12.15;;
51618;SDS011;38518;53.164;5.430;2022-11-11T04:24:19;21.13;;;11.20;;
51618;SDS011;38518;53.164;5.430;2022-11-11T04:27:11;18.38;;;9.32;;
51618;SDS011;38518;53.164;5.430;2022-11-11T04:29:39;24.63;;;11.65;;
51618;SDS011;38518;53.164;5.430;2022-11-11T04:32:06;23.73;;;12.15;;
51618;SDS011;38518;53.164;5.430;2022-11-11T04:34:55;26.33;;;13.68;;
51618;SDS011;38518;53.164;5.430;2022-11-11T04:37:22;18.27;;;12.18;;
51618;SDS011;38518;53.164;5.430;2022-11-11T04:39:49;24.55;;;15.07;;
51618;SDS011;38518;53.164;5.430;2022-11-11T04:42:34;24.53;;;15.17;;
51618;SDS011;38518;53.164;5.430;2022-11-11T04:45:00;25.42;;;13.57;;
51618;SDS011;38518;53.164;5.430;2022-11-11T04:47:54;21.45;;;14.57;;
51618;SDS011;38518;53.164;5.430;2022-11-11T04:50:31;20.73;;;16.10;;
51618;SDS011;38518;53.164;5.430;2022-11-11T04:52:59;22.48;;;15.45;;
51618;SDS011;38518;53.164;5.430;2022-11-11T04:55:25;21.25;;;15.07;;
51618;SDS011;38518;53.164;5.430;2022-11-11T04:58:10;24.52;;;16.67;;
51618;SDS011;38518;53.164;5.430;2022-11-11T05:00:36;26.38;;;17.10;;
51618;SDS011;38518;53.164;5.430;2022-11-11T05:03:02;25.27;;;16.48;;
51618;SDS011;38518;53.164;5.430;2022-11-11T05:05:43;26.05;;;17.48;;
51618;SDS011;38518;53.164;5.430;2022-11-11T05:08:29;25.35;;;18.52;;
51618;SDS011;38518;53.164;5.430;2022-11-11T05:11:14;26.27;;;18.33;;
51618;SDS011;38518;53.164;5.430;2022-11-11T05:13:40;24.95;;;18.38;;
51618;SDS011;38518;53.164;5.430;2022-11-11T05:16:26;24.10;;;19.38;;
51618;SDS011;38518;53.164;5.430;2022-11-11T05:19:12;28.98;;;20.50;;
51618;SDS011;38518;53.164;5.430;2022-11-11T05:22:01;26.08;;;20.45;;
51618;SDS011;38518;53.164;5.430;2022-11-11T05:24:41;29.98;;;21.80;;
51618;SDS011;38518;53.164;5.430;2022-11-11T05:27:26;28.15;;;21.38;;
51618;SDS011;38518;53.164;5.430;2022-11-11T05:29:52;34.35;;;21.38;;
51618;SDS011;38518;53.164;5.430;2022-11-11T05:32:18;28.67;;;21.52;;
51618;SDS011;38518;53.164;5.430;2022-11-11T05:34:45;29.35;;;21.73;;
51618;SDS011;38518;53.164;5.430;2022-11-11T05:37:11;30.00;;;22.73;;
51618;SDS011;38518;53.164;5.430;2022-11-11T05:39:37;26.00;;;20.40;;
51618;SDS011;38518;53.164;5.430;2022-11-11T05:42:03;28.38;;;21.75;;
51618;SDS011;38518;53.164;5.430;2022-11-11T05:44:29;30.02;;;21.45;;
51618;SDS011;38518;53.164;5.430;2022-11-11T05:46:55;33.03;;;22.60;;
51618;SDS011;38518;53.164;5.430;2022-11-11T05:49:21;28.27;;;22.83;;
51618;SDS011;38518;53.164;5.430;2022-11-11T05:51:47;35.08;;;23.38;;
51618;SDS011;38518;53.164;5.430;2022-11-11T05:54:13;31.25;;;22.50;;
51618;SDS011;38518;53.164;5.430;2022-11-11T05:56:39;29.08;;;22.05;;
51618;SDS011;38518;53.164;5.430;2022-11-11T05:59:05;29.92;;;22.50;;
51618;SDS011;38518;53.164;5.430;2022-11-11T06:01:32;28.83;;;22.63;;
51618;SDS011;38518;53.164;5.430;2022-11-11T06:03:58;29.30;;;21.98;;
51618;SDS011;38518;53.164;5.430;2022-11-11T06:06:24;29.77;;;22.55;;
51618;SDS011;38518;53.164;5.430;2022-11-11T06:08:50;26.83;;;22.23;;
51618;SDS011;38518;53.164;5.430;2022-11-11T06:11:16;31.90;;;21.40;;
51618;SDS011;38518;53.164;5.430;2022-11-11T06:13:41;32.72;;;23.20;;
51618;SDS011;38518;53.164;5.430;2022-11-11T06:16:07;28.77;;;21.42;;
51618;SDS011;38518;53.164;5.430;2022-11-11T06:18:33;28.85;;;20.27;;
51618;SDS011;38518;53.164;5.430;2022-11-11T06:20:59;30.70;;;22.95;;
51618;SDS011;38518;53.164;5.430;2022-11-11T06:23:26;28.35;;;21.75;;
51618;SDS011;38518;53.164;5.430;2022-11-11T06:25:53;28.50;;;20.38;;
51618;SDS011;38518;53.164;5.430;2022-11-11T06:28:38;29.17;;;20.40;;
51618;SDS011;38518;53.164;5.430;2022-11-11T06:31:03;26.58;;;17.23;;
51618;SDS011;38518;53.164;5.430;2022-11-11T06:33:31;30.00;;;21.55;;
51618;SDS011;38518;53.164;5.430;2022-11-11T06:35:58;29.58;;;22.52;;
51618;SDS011;38518;53.164;5.430;2022-11-11T06:38:24;29.40;;;22.98;;
51618;SDS011;38518;53.164;5.430;2022-11-11T06:40:50;27.02;;;21.90;;
51618;SDS011;38518;53.164;5.430;2022-11-11T06:43:16;27.27;;;21.80;;
51618;SDS011;38518;53.164;5.430;2022-11-11T06:45:41;29.63;;;22.33;;
51618;SDS011;38518;53.164;5.430;2022-11-11T06:48:07;29.08;;;21.17;;
51618;SDS011;38518;53.164;5.430;2022-11-11T06:50:33;31.50;;;22.60;;
51618;SDS011;38518;53.164;5.430;2022-11-11T06:53:07;32.85;;;23.08;;
51618;SDS011;38518;53.164;5.430;2022-11-11T06:55:37;27.58;;;22.25;;
51618;SDS011;38518;53.164;5.430;2022-11-11T06:58:03;30.50;;;23.15;;
51618;SDS011;38518;53.164;5.430;2022-11-11T07:00:37;31.42;;;23.17;;
51618;SDS011;38518;53.164;5.430;2022-11-11T07:03:04;30.95;;;23.42;;
51618;SDS011;38518;53.164;5.430;2022-11-11T07:05:31;32.72;;;23.95;;
51618;SDS011;38518;53.164;5.430;2022-11-11T07:08:00;29.58;;;23.73;;
51618;SDS011;38518;53.164;5.430;2022-11-11T07:10:27;31.10;;;22.02;;
51618;SDS011;38518;53.164;5.430;2022-11-11T07:12:52;30.65;;;23.65;;
51618;SDS011;38518;53.164;5.430;2022-11-11T07:15:18;28.58;;;23.67;;
51618;SDS011;38518;53.164;5.430;2022-11-11T07:17:44;29.85;;;21.00;;
51618;SDS011;38518;53.164;5.430;2022-11-11T07:20:10;32.38;;;25.95;;
51618;SDS011;38518;53.164;5.430;2022-11-11T07:22:35;30.23;;;24.25;;
51618;SDS011;38518;53.164;5.430;2022-11-11T07:25:02;29.92;;;24.38;;
51618;SDS011;38518;53.164;5.430;2022-11-11T07:27:28;29.60;;;24.27;;
51618;SDS011;38518;53.164;5.430;2022-11-11T07:29:54;32.80;;;25.90;;
51618;SDS011;38518;53.164;5.430;2022-11-11T07:32:20;34.15;;;21.83;;
51618;SDS011;38518;53.164;5.430;2022-11-11T07:34:45;31.40;;;25.42;;
51618;SDS011;38518;53.164;5.430;2022-11-11T07:37:11;29.10;;;23.35;;
51618;SDS011;38518;53.164;5.430;2022-11-11T07:39:37;30.65;;;24.80;;
51618;SDS011;38518;53.164;5.430;2022-11-11T07:42:03;29.75;;;24.33;;
51618;SDS011;38518;53.164;5.430;2022-11-11T07:44:29;30.08;;;23.52;;
51618;SDS011;38518;53.164;5.430;2022-11-11T07:46:54;31.88;;;25.02;;
51618;SDS011;38518;53.164;5.430;2022-11-11T07:49:20;28.52;;;23.30;;
51618;SDS011;38518;53.164;5.430;2022-11-11T07:51:46;34.90;;;26.05;;
51618;SDS011;38518;53.164;5.430;2022-11-11T07:54:12;30.77;;;23.67;;
51618;SDS011;38518;53.164;5.430;2022-11-11T07:56:37;29.90;;;22.63;;
51618;SDS011;38518;53.164;5.430;2022-11-11T07:59:03;32.20;;;23.77;;
51618;SDS011;38518;53.164;5.430;2022-11-11T08:01:29;30.50;;;23.60;;
51618;SDS011;38518;53.164;5.430;2022-11-11T08:03:55;29.85;;;23.98;;
51618;SDS011;38518;53.164;5.430;2022-11-11T08:06:21;32.15;;;26.90;;
51618;SDS011;38518;53.164;5.430;2022-11-11T08:08:47;33.10;;;25.10;;
51618;SDS011;38518;53.164;5.430;2022-11-11T08:11:14;30.98;;;25.58;;
51618;SDS011;38518;53.164;5.430;2022-11-11T08:13:40;26.13;;;22.08;;
51618;SDS011;38518;53.164;5.430;2022-11-11T08:16:08;33.28;;;25.73;;
51618;SDS011;38518;53.164;5.430;2022-11-11T08:18:35;29.10;;;23.20;;
51618;SDS011;38518;53.164;5.430;2022-11-11T08:21:02;30.92;;;25.08;;
51618;SDS011;38518;53.164;5.430;2022-11-11T08:23:28;32.15;;;25.63;;
51618;SDS011;38518;53.164;5.430;2022-11-11T08:26:01;31.95;;;26.73;;
51618;SDS011;38518;53.164;5.430;2022-11-11T08:28:29;37.00;;;28.52;;
51618;SDS011;38518;53.164;5.430;2022-11-11T08:30:57;33.90;;;26.80;;
51618;SDS011;38518;53.164;5.430;2022-11-11T08:33:23;36.55;;;28.65;;
51618;SDS011;38518;53.164;5.430;2022-11-11T08:35:50;33.17;;;28.00;;
51618;SDS011;38518;53.164;5.430;2022-11-11T08:38:18;31.95;;;25.17;;
51618;SDS011;38518;53.164;5.430;2022-11-11T08:40:45;34.50;;;27.00;;
51618;SDS011;38518;53.164;5.430;2022-11-11T08:43:11;34.92;;;28.40;;
51618;SDS011;38518;53.164;5.430;2022-11-11T08:45:37;34.42;;;28.42;;
51618;SDS011;38518;53.164;5.430;2022-11-11T08:48:02;35.25;;;27.17;;
51618;SDS011;38518;53.164;5.430;2022-11-11T08:50:29;35.85;;;27.70;;
51618;SDS011;38518;53.164;5.430;2022-11-11T08:52:56;34.25;;;27.50;;
51618;SDS011;38518;53.164;5.430;2022-11-11T08:55:21;35.78;;;27.38;;
51618;SDS011;38518;53.164;5.430;2022-11-11T08:57:47;34.47;;;25.88;;
51618;SDS011;38518;53.164;5.430;2022-11-11T09:00:21;35.53;;;26.98;;
51618;SDS011;38518;53.164;5.430;2022-11-11T09:02:48;34.17;;;27.30;;
51618;SDS011;38518;53.164;5.430;2022-11-11T09:05:13;32.10;;;27.60;;
51618;SDS011;38518;53.164;5.430;2022-11-11T09:07:39;34.83;;;27.92;;
51618;SDS011;38518;53.164;5.430;2022-11-11T09:10:05;32.83;;;27.00;;
51618;SDS011;38518;53.164;5.430;2022-11-11T09:12:31;34.38;;;27.05;;
51618;SDS011;38518;53.164;5.430;2022-11-11T09:14:57;37.00;;;28.25;;
51618;SDS011;38518;53.164;5.430;2022-11-11T09:17:25;33.05;;;27.00;;
51618;SDS011;38518;53.164;5.430;2022-11-11T09:19:51;31.10;;;26.42;;
51618;SDS011;38518;53.164;5.430;2022-11-11T09:22:17;33.83;;;27.95;;
51618;SDS011;38518;53.164;5.430;2022-11-11T09:24:43;35.45;;;24.48;;
51618;SDS011;38518;53.164;5.430;2022-11-11T09:27:09;33.78;;;28.52;;
51618;SDS011;38518;53.164;5.430;2022-11-11T09:29:35;33.78;;;28.77;;
51618;SDS011;38518;53.164;5.430;2022-11-11T09:32:02;33.28;;;27.42;;
51618;SDS011;38518;53.164;5.430;2022-11-11T09:34:28;34.83;;;26.55;;
51618;SDS011;38518;53.164;5.430;2022-11-11T09:36:54;32.25;;;28.02;;
51618;SDS011;38518;53.164;5.430;2022-11-11T09:39:19;34.38;;;27.52;;
51618;SDS011;38518;53.164;5.430;2022-11-11T09:42:07;31.13;;;26.00;;
51618;SDS011;38518;53.164;5.430;2022-11-11T09:51:25;33.67;;;27.17;;
51618;SDS011;38518;53.164;5.430;2022-11-11T09:53:59;33.65;;;27.27;;
51618;SDS011;38518;53.164;5.430;2022-11-11T09:56:29;36.13;;;29.00;;
51618;SDS011;38518;53.164;5.430;2022-11-11T10:01:40;35.08;;;29.98;;
51618;SDS011;38518;53.164;5.430;2022-11-11T10:04:58;36.50;;;30.38;;
51618;SDS011;38518;53.164;5.430;2022-11-11T10:07:13;32.72;;;28.25;;
51618;SDS011;38518;53.164;5.430;2022-11-11T10:13:10;31.85;;;25.52;;
51618;SDS011;38518;53.164;5.430;2022-11-11T10:16:00;33.55;;;28.00;;
51618;SDS011;38518;53.164;5.430;2022-11-11T10:21:51;36.20;;;30.75;;
51618;SDS011;38518;53.164;5.430;2022-11-11T10:24:21;39.80;;;30.58;;
51618;SDS011;38518;53.164;5.430;2022-11-11T10:26:58;34.67;;;26.92;;
51618;SDS011;38518;53.164;5.430;2022-11-11T10:29:29;29.42;;;24.77;;
51618;SDS011;38518;53.164;5.430;2022-11-11T10:32:37;35.75;;;30.40;;
51618;SDS011;38518;53.164;5.430;2022-11-11T10:34:59;36.55;;;30.13;;
51618;SDS011;38518;53.164;5.430;2022-11-11T10:37:38;37.53;;;31.38;;
51618;SDS011;38518;53.164;5.430;2022-11-11T10:42:47;37.10;;;30.17;;
51618;SDS011;38518;53.164;5.430;2022-11-11T10:50:49;35.08;;;29.67;;
51618;SDS011;38518;53.164;5.430;2022-11-11T10:56:08;39.05;;;29.70;;
51618;SDS011;38518;53.164;5.430;2022-11-11T11:01:11;30.75;;;27.42;;
51618;SDS011;38518;53.164;5.430;2022-11-11T11:03:41;33.17;;;29.48;;
51618;SDS011;38518;53.164;5.430;2022-11-11T11:06:33;31.02;;;27.25;;
51618;SDS011;38518;53.164;5.430;2022-11-11T11:14:38;34.72;;;28.85;;
51618;SDS011;38518;53.164;5.430;2022-11-11T11:17:55;33.90;;;28.90;;
51618;SDS011;38518;53.164;5.430;2022-11-11T11:22:52;33.00;;;27.83;;
51618;SDS011;38518;53.164;5.430;2022-11-11T11:25:24;37.22;;;28.83;;
51618;SDS011;38518;53.164;5.430;2022-11-11T11:28:04;35.03;;;29.75;;
51618;SDS011;38518;53.164;5.430;2022-11-11T11:30:35;29.98;;;25.35;;
51618;SDS011;38518;53.164;5.430;2022-11-11T11:33:02;34.83;;;29.08;;
51618;SDS011;38518;53.164;5.430;2022-11-11T11:38:08;31.40;;;26.17;;
51618;SDS011;38518;53.164;5.430;2022-11-11T11:40:45;32.63;;;29.17;;
51618;SDS011;38518;53.164;5.430;2022-11-11T11:43:26;34.38;;;29.50;;
51618;SDS011;38518;53.164;5.430;2022-11-11T11:45:58;32.67;;;29.08;;
51618;SDS011;38518;53.164;5.430;2022-11-11T11:50:51;32.70;;;27.05;;
51618;SDS011;38518;53.164;5.430;2022-11-11T11:56:06;30.48;;;27.15;;
51618;SDS011;38518;53.164;5.430;2022-11-11T12:14:32;28.58;;;23.25;;
51618;SDS011;38518;53.164;5.430;2022-11-11T12:17:25;28.73;;;21.92;;
51618;SDS011;38518;53.164;5.430;2022-11-11T12:19:59;28.80;;;22.55;;
51618;SDS011;38518;53.164;5.430;2022-11-11T12:25:17;26.05;;;21.13;;
51618;SDS011;38518;53.164;5.430;2022-11-11T12:27:54;25.75;;;20.05;;
51618;SDS011;38518;53.164;5.430;2022-11-11T12:30:46;23.95;;;18.33;;
51618;SDS011;38518;53.164;5.430;2022-11-11T12:33:19;25.17;;;17.30;;
51618;SDS011;38518;53.164;5.430;2022-11-11T12:38:42;24.88;;;19.20;;
51618;SDS011;38518;53.164;5.430;2022-11-11T13:05:28;21.77;;;16.92;;
51618;SDS011;38518;53.164;5.430;2022-11-11T13:08:13;25.50;;;18.35;;
51618;SDS011;38518;53.164;5.430;2022-11-11T13:16:24;21.70;;;16.30;;
51618;SDS011;38518;53.164;5.430;2022-11-11T13:18:56;25.27;;;18.42;;
51618;SDS011;38518;53.164;5.430;2022-11-11T13:21:29;23.05;;;17.15;;
51618;SDS011;38518;53.164;5.430;2022-11-11T13:24:00;22.58;;;17.27;;
51618;SDS011;38518;53.164;5.430;2022-11-11T13:26:32;21.45;;;16.58;;
51618;SDS011;38518;53.164;5.430;2022-11-11T13:32:04;20.83;;;17.33;;
51618;SDS011;38518;53.164;5.430;2022-11-11T13:34:37;22.08;;;16.15;;
51618;SDS011;38518;53.164;5.430;2022-11-11T13:37:04;23.60;;;17.63;;
51618;SDS011;38518;53.164;5.430;2022-11-11T13:39:36;21.90;;;16.33;;
51618;SDS011;38518;53.164;5.430;2022-11-11T13:42:05;23.67;;;17.90;;
51618;SDS011;38518;53.164;5.430;2022-11-11T13:44:44;23.20;;;16.67;;
51618;SDS011;38518;53.164;5.430;2022-11-11T13:47:19;25.42;;;17.85;;
51618;SDS011;38518;53.164;5.430;2022-11-11T13:50:02;20.77;;;16.38;;
51618;SDS011;38518;53.164;5.430;2022-11-11T13:52:39;23.80;;;16.73;;
51618;SDS011;38518;53.164;5.430;2022-11-11T13:55:28;23.13;;;14.98;;
51618;SDS011;38518;53.164;5.430;2022-11-11T13:58:04;20.20;;;16.77;;
51618;SDS011;38518;53.164;5.430;2022-11-11T14:00:34;22.17;;;16.08;;
51618;SDS011;38518;53.164;5.430;2022-11-11T14:05:44;25.67;;;15.85;;
51618;SDS011;38518;53.164;5.430;2022-11-11T14:08:10;23.77;;;15.93;;
51618;SDS011;38518;53.164;5.430;2022-11-11T14:13:52;23.48;;;15.80;;
51618;SDS011;38518;53.164;5.430;2022-11-11T14:21:54;23.02;;;16.77;;
51618;SDS011;38518;53.164;5.430;2022-11-11T14:27:04;19.20;;;15.55;;
51618;SDS011;38518;53.164;5.430;2022-11-11T14:29:50;22.40;;;16.58;;
51618;SDS011;38518;53.164;5.430;2022-11-11T14:40:43;23.58;;;15.32;;
51618;SDS011;38518;53.164;5.430;2022-11-11T14:46:13;23.48;;;16.33;;
51618;SDS011;38518;53.164;5.430;2022-11-11T14:48:55;19.63;;;15.27;;
51618;SDS011;38518;53.164;5.430;2022-11-11T14:51:39;21.77;;;16.90;;
51618;SDS011;38518;53.164;5.430;2022-11-11T14:54:21;24.08;;;16.15;;
51618;SDS011;38518;53.164;5.430;2022-11-11T14:56:54;22.13;;;16.45;;
51618;SDS011;38518;53.164;5.430;2022-11-11T14:59:34;25.13;;;16.60;;
51618;SDS011;38518;53.164;5.430;2022-11-11T15:02:02;19.90;;;15.48;;
51618;SDS011;38518;53.164;5.430;2022-11-11T15:04:38;23.10;;;16.02;;
51618;SDS011;38518;53.164;5.430;2022-11-11T15:07:04;25.13;;;15.35;;
51618;SDS011;38518;53.164;5.430;2022-11-11T15:15:36;21.75;;;14.50;;
51618;SDS011;38518;53.164;5.430;2022-11-11T15:21:12;22.48;;;15.93;;
51618;SDS011;38518;53.164;5.430;2022-11-11T15:26:21;21.40;;;15.85;;
51618;SDS011;38518;53.164;5.430;2022-11-11T15:34:09;21.65;;;14.68;;
51618;SDS011;38518;53.164;5.430;2022-11-11T15:39:26;20.15;;;14.75;;
51618;SDS011;38518;53.164;5.430;2022-11-11T15:42:02;20.00;;;15.57;;
51618;SDS011;38518;53.164;5.430;2022-11-11T15:44:29;22.30;;;16.00;;
51618;SDS011;38518;53.164;5.430;2022-11-11T15:46:58;18.55;;;14.23;;
51618;SDS011;38518;53.164;5.430;2022-11-11T15:49:47;21.33;;;15.15;;
51618;SDS011;38518;53.164;5.430;2022-11-11T15:54:54;21.23;;;15.20;;
51618;SDS011;38518;53.164;5.430;2022-11-11T15:57:21;23.33;;;14.48;;
51618;SDS011;38518;53.164;5.430;2022-11-11T15:59:52;20.02;;;15.63;;
51618;SDS011;38518;53.164;5.430;2022-11-11T16:02:20;17.33;;;13.52;;
51618;SDS011;38518;53.164;5.430;2022-11-11T16:04:53;19.88;;;16.42;;
51618;SDS011;38518;53.164;5.430;2022-11-11T16:07:42;21.73;;;17.08;;
51618;SDS011;38518;53.164;5.430;2022-11-11T16:10:12;23.77;;;15.52;;
51618;SDS011;38518;53.164;5.430;2022-11-11T16:12:47;26.07;;;17.30;;
51618;SDS011;38518;53.164;5.430;2022-11-11T16:18:03;18.90;;;15.43;;
51618;SDS011;38518;53.164;5.430;2022-11-11T16:20:36;20.17;;;15.90;;
51618;SDS011;38518;53.164;5.430;2022-11-11T16:23:10;22.35;;;16.23;;
51618;SDS011;38518;53.164;5.430;2022-11-11T16:25:40;21.48;;;16.27;;
51618;SDS011;38518;53.164;5.430;2022-11-11T16:28:06;24.45;;;16.52;;
51618;SDS011;38518;53.164;5.430;2022-11-11T16:30:36;22.98;;;17.00;;
51618;SDS011;38518;53.164;5.430;2022-11-11T16:33:02;21.00;;;17.33;;
51618;SDS011;38518;53.164;5.430;2022-11-11T16:35:35;22.90;;;17.90;;
51618;SDS011;38518;53.164;5.430;2022-11-11T16:38:03;25.10;;;17.85;;
51618;SDS011;38518;53.164;5.430;2022-11-11T16:43:21;27.95;;;19.58;;
51618;SDS011;38518;53.164;5.430;2022-11-11T16:51:07;33.53;;;23.42;;
51618;SDS011;38518;53.164;5.430;2022-11-11T16:53:38;27.05;;;22.70;;
51618;SDS011;38518;53.164;5.430;2022-11-11T16:56:24;30.60;;;23.58;;
51618;SDS011;38518;53.164;5.430;2022-11-11T16:59:04;31.73;;;23.38;;
51618;SDS011;38518;53.164;5.430;2022-11-11T17:01:42;28.75;;;23.23;;
51618;SDS011;38518;53.164;5.430;2022-11-11T17:04:10;32.72;;;20.02;;
51618;SDS011;38518;53.164;5.430;2022-11-11T17:09:39;31.08;;;25.88;;
51618;SDS011;38518;53.164;5.430;2022-11-11T17:12:06;33.30;;;26.50;;
51618;SDS011;38518;53.164;5.430;2022-11-11T17:14:34;36.33;;;22.33;;
51618;SDS011;38518;53.164;5.430;2022-11-11T17:17:02;32.45;;;26.77;;
51618;SDS011;38518;53.164;5.430;2022-11-11T17:19:30;32.83;;;26.90;;
51618;SDS011;38518;53.164;5.430;2022-11-11T17:22:03;34.33;;;27.27;;
51618;SDS011;38518;53.164;5.430;2022-11-11T17:24:38;35.97;;;28.58;;
51618;SDS011;38518;53.164;5.430;2022-11-11T17:27:04;38.35;;;30.42;;
51618;SDS011;38518;53.164;5.430;2022-11-11T17:29:30;38.92;;;30.85;;
51618;SDS011;38518;53.164;5.430;2022-11-11T17:31:56;36.22;;;30.50;;
51618;SDS011;38518;53.164;5.430;2022-11-11T17:34:22;34.92;;;30.55;;
51618;SDS011;38518;53.164;5.430;2022-11-11T17:36:48;38.80;;;32.25;;
51618;SDS011;38518;53.164;5.430;2022-11-11T17:39:13;43.05;;;32.60;;
51618;SDS011;38518;53.164;5.430;2022-11-11T17:41:39;40.47;;;33.50;;
51618;SDS011;38518;53.164;5.430;2022-11-11T17:44:05;35.00;;;29.80;;